sensor_id;sensor_type;location;lat;lon;timestamp;P1;durP1;ratioP1;P2;durP2;ratioP2
73100;SDS011;61288;53.446;-2.266;2022-11-15T00:02:06;6.50;;;1.67;;
73100;SDS011;61288;53.446;-2.266;2022-11-15T00:04:32;6.22;;;1.40;;
73100;SDS011;61288;53.446;-2.266;2022-11-15T00:06:58;5.57;;;1.60;;
73100;SDS011;61288;53.446;-2.266;2022-11-15T00:09:23;8.23;;;1.60;;
73100;SDS011;61288;53.446;-2.266;2022-11-15T00:11:49;7.75;;;1.50;;
73100;SDS011;61288;53.446;-2.266;2022-11-15T00:14:16;4.57;;;1.45;;
73100;SDS011;61288;53.446;-2.266;2022-11-15T00:16:42;6.00;;;1.30;;
73100;SDS011;61288;53.446;-2.266;2022-11-15T00:19:08;3.67;;;1.23;;
73100;SDS011;61288;53.446;-2.266;2022-11-15T00:21:34;5.85;;;1.30;;
73100;SDS011;61288;53.446;-2.266;2022-11-15T00:23:59;4.45;;;1.27;;
73100;SDS011;61288;53.446;-2.266;2022-11-15T00:26:26;9.40;;;1.92;;
73100;SDS011;61288;53.446;-2.266;2022-11-15T00:28:52;7.68;;;1.70;;
73100;SDS011;61288;53.446;-2.266;2022-11-15T00:31:18;5.38;;;1.38;;
73100;SDS011;61288;53.446;-2.266;2022-11-15T00:33:43;2.85;;;1.38;;
73100;SDS011;61288;53.446;-2.266;2022-11-15T00:36:10;7.60;;;1.92;;
73100;SDS011;61288;53.446;-2.266;2022-11-15T00:38:37;5.40;;;1.33;;
73100;SDS011;61288;53.446;-2.266;2022-11-15T00:41:06;6.20;;;1.38;;
73100;SDS011;61288;53.446;-2.266;2022-11-15T00:43:32;4.80;;;1.27;;
73100;SDS011;61288;53.446;-2.266;2022-11-15T00:45:58;6.32;;;1.50;;
73100;SDS011;61288;53.446;-2.266;2022-11-15T00:48:24;4.30;;;1.17;;
73100;SDS011;61288;53.446;-2.266;2022-11-15T00:50:50;5.60;;;1.33;;
73100;SDS011;61288;53.446;-2.266;2022-11-15T00:53:16;7.75;;;1.40;;
73100;SDS011;61288;53.446;-2.266;2022-11-15T00:55:42;4.95;;;1.10;;
73100;SDS011;61288;53.446;-2.266;2022-11-15T00:58:10;6.10;;;1.30;;
73100;SDS011;61288;53.446;-2.266;2022-11-15T01:00:35;3.47;;;1.20;;
73100;SDS011;61288;53.446;-2.266;2022-11-15T01:03:01;9.07;;;1.50;;
73100;SDS011;61288;53.446;-2.266;2022-11-15T01:05:27;4.05;;;1.00;;
73100;SDS011;61288;53.446;-2.266;2022-11-15T01:07:53;5.72;;;1.27;;
73100;SDS011;61288;53.446;-2.266;2022-11-15T01:10:20;5.88;;;1.15;;
73100;SDS011;61288;53.446;-2.266;2022-11-15T01:12:46;4.55;;;1.40;;
73100;SDS011;61288;53.446;-2.266;2022-11-15T01:15:12;7.15;;;1.30;;
73100;SDS011;61288;53.446;-2.266;2022-11-15T01:17:38;6.68;;;1.13;;
73100;SDS011;61288;53.446;-2.266;2022-11-15T01:20:04;3.63;;;1.23;;
73100;SDS011;61288;53.446;-2.266;2022-11-15T01:22:30;4.72;;;1.20;;
73100;SDS011;61288;53.446;-2.266;2022-11-15T01:24:55;7.60;;;1.48;;
73100;SDS011;61288;53.446;-2.266;2022-11-15T01:27:21;6.93;;;1.08;;
73100;SDS011;61288;53.446;-2.266;2022-11-15T01:29:47;9.27;;;1.55;;
73100;SDS011;61288;53.446;-2.266;2022-11-15T01:32:12;6.22;;;1.23;;
73100;SDS011;61288;53.446;-2.266;2022-11-15T01:34:38;8.43;;;1.58;;
73100;SDS011;61288;53.446;-2.266;2022-11-15T01:37:03;6.70;;;1.50;;
73100;SDS011;61288;53.446;-2.266;2022-11-15T01:39:30;11.18;;;1.83;;
73100;SDS011;61288;53.446;-2.266;2022-11-15T01:41:56;7.57;;;1.13;;
73100;SDS011;61288;53.446;-2.266;2022-11-15T01:44:43;12.45;;;1.20;;
73100;SDS011;61288;53.446;-2.266;2022-11-15T01:47:25;4.85;;;1.75;;
73100;SDS011;61288;53.446;-2.266;2022-11-15T01:52:39;8.52;;;1.70;;
73100;SDS011;61288;53.446;-2.266;2022-11-15T01:55:11;4.43;;;1.15;;
73100;SDS011;61288;53.446;-2.266;2022-11-15T01:57:38;6.43;;;1.20;;
73100;SDS011;61288;53.446;-2.266;2022-11-15T02:00:06;6.53;;;1.95;;
73100;SDS011;61288;53.446;-2.266;2022-11-15T02:02:32;5.90;;;1.33;;
73100;SDS011;61288;53.446;-2.266;2022-11-15T02:04:59;4.68;;;1.40;;
73100;SDS011;61288;53.446;-2.266;2022-11-15T02:07:25;7.15;;;1.10;;
73100;SDS011;61288;53.446;-2.266;2022-11-15T02:09:50;4.53;;;1.15;;
73100;SDS011;61288;53.446;-2.266;2022-11-15T02:12:18;5.60;;;1.00;;
73100;SDS011;61288;53.446;-2.266;2022-11-15T02:14:48;12.85;;;1.67;;
73100;SDS011;61288;53.446;-2.266;2022-11-15T02:20:05;11.48;;;1.38;;
73100;SDS011;61288;53.446;-2.266;2022-11-15T02:31:13;8.75;;;1.38;;
73100;SDS011;61288;53.446;-2.266;2022-11-15T02:36:43;5.60;;;1.05;;
73100;SDS011;61288;53.446;-2.266;2022-11-15T02:39:44;6.55;;;1.45;;
73100;SDS011;61288;53.446;-2.266;2022-11-15T02:42:26;6.45;;;2.10;;
73100;SDS011;61288;53.446;-2.266;2022-11-15T02:45:17;10.73;;;1.60;;
73100;SDS011;61288;53.446;-2.266;2022-11-15T02:47:49;7.57;;;1.40;;
73100;SDS011;61288;53.446;-2.266;2022-11-15T02:50:18;6.95;;;1.30;;
73100;SDS011;61288;53.446;-2.266;2022-11-15T02:52:47;5.85;;;1.48;;
73100;SDS011;61288;53.446;-2.266;2022-11-15T02:58:05;7.40;;;1.20;;
73100;SDS011;61288;53.446;-2.266;2022-11-15T03:06:25;5.25;;;1.20;;
73100;SDS011;61288;53.446;-2.266;2022-11-15T03:12:04;12.13;;;1.40;;
73100;SDS011;61288;53.446;-2.266;2022-11-15T03:17:36;9.57;;;1.92;;
73100;SDS011;61288;53.446;-2.266;2022-11-15T03:20:07;6.97;;;1.30;;
73100;SDS011;61288;53.446;-2.266;2022-11-15T03:22:41;5.80;;;1.42;;
73100;SDS011;61288;53.446;-2.266;2022-11-15T03:25:10;6.85;;;1.50;;
73100;SDS011;61288;53.446;-2.266;2022-11-15T03:27:43;8.48;;;1.50;;
73100;SDS011;61288;53.446;-2.266;2022-11-15T03:30:15;9.57;;;1.80;;
73100;SDS011;61288;53.446;-2.266;2022-11-15T03:32:43;9.70;;;1.77;;
73100;SDS011;61288;53.446;-2.266;2022-11-15T03:35:13;9.73;;;1.50;;
73100;SDS011;61288;53.446;-2.266;2022-11-15T03:40:25;10.48;;;2.35;;
73100;SDS011;61288;53.446;-2.266;2022-11-15T03:43:05;9.25;;;1.70;;
73100;SDS011;61288;53.446;-2.266;2022-11-15T03:45:56;7.53;;;1.38;;
73100;SDS011;61288;53.446;-2.266;2022-11-15T03:48:30;9.02;;;1.58;;
73100;SDS011;61288;53.446;-2.266;2022-11-15T03:51:03;7.78;;;1.90;;
73100;SDS011;61288;53.446;-2.266;2022-11-15T03:53:31;7.47;;;1.52;;
73100;SDS011;61288;53.446;-2.266;2022-11-15T03:55:58;9.10;;;1.48;;
73100;SDS011;61288;53.446;-2.266;2022-11-15T03:58:24;6.43;;;1.40;;
73100;SDS011;61288;53.446;-2.266;2022-11-15T04:00:52;9.90;;;1.95;;
73100;SDS011;61288;53.446;-2.266;2022-11-15T04:03:21;7.80;;;1.40;;
73100;SDS011;61288;53.446;-2.266;2022-11-15T04:05:46;6.93;;;1.33;;
73100;SDS011;61288;53.446;-2.266;2022-11-15T04:08:11;9.15;;;1.50;;
73100;SDS011;61288;53.446;-2.266;2022-11-15T04:10:37;11.70;;;1.90;;
73100;SDS011;61288;53.446;-2.266;2022-11-15T04:13:02;7.50;;;1.30;;
73100;SDS011;61288;53.446;-2.266;2022-11-15T04:15:28;10.52;;;2.13;;
73100;SDS011;61288;53.446;-2.266;2022-11-15T04:17:56;8.98;;;1.73;;
73100;SDS011;61288;53.446;-2.266;2022-11-15T04:20:25;7.30;;;1.80;;
73100;SDS011;61288;53.446;-2.266;2022-11-15T04:26:07;11.57;;;1.60;;
73100;SDS011;61288;53.446;-2.266;2022-11-15T04:28:35;6.60;;;1.45;;
73100;SDS011;61288;53.446;-2.266;2022-11-15T04:31:20;8.23;;;1.33;;
73100;SDS011;61288;53.446;-2.266;2022-11-15T04:33:46;6.60;;;1.35;;
73100;SDS011;61288;53.446;-2.266;2022-11-15T04:36:11;8.68;;;1.50;;
73100;SDS011;61288;53.446;-2.266;2022-11-15T04:38:55;9.80;;;1.40;;
73100;SDS011;61288;53.446;-2.266;2022-11-15T04:41:21;9.60;;;1.70;;
73100;SDS011;61288;53.446;-2.266;2022-11-15T04:43:46;10.13;;;1.60;;
73100;SDS011;61288;53.446;-2.266;2022-11-15T04:46:12;8.52;;;1.60;;
73100;SDS011;61288;53.446;-2.266;2022-11-15T04:48:38;7.45;;;1.90;;
73100;SDS011;61288;53.446;-2.266;2022-11-15T04:51:04;10.68;;;1.80;;
73100;SDS011;61288;53.446;-2.266;2022-11-15T04:53:32;15.10;;;1.60;;
73100;SDS011;61288;53.446;-2.266;2022-11-15T04:55:58;7.03;;;1.70;;
73100;SDS011;61288;53.446;-2.266;2022-11-15T04:58:23;13.02;;;2.08;;
73100;SDS011;61288;53.446;-2.266;2022-11-15T05:00:49;9.05;;;1.88;;
73100;SDS011;61288;53.446;-2.266;2022-11-15T05:03:14;11.25;;;2.15;;
73100;SDS011;61288;53.446;-2.266;2022-11-15T05:05:59;5.85;;;1.42;;
73100;SDS011;61288;53.446;-2.266;2022-11-15T05:08:25;8.52;;;1.80;;
73100;SDS011;61288;53.446;-2.266;2022-11-15T05:10:51;7.85;;;2.58;;
73100;SDS011;61288;53.446;-2.266;2022-11-15T05:13:18;8.85;;;1.80;;
73100;SDS011;61288;53.446;-2.266;2022-11-15T05:15:43;6.82;;;1.70;;
73100;SDS011;61288;53.446;-2.266;2022-11-15T05:18:09;11.48;;;2.47;;
73100;SDS011;61288;53.446;-2.266;2022-11-15T05:20:37;8.65;;;1.42;;
73100;SDS011;61288;53.446;-2.266;2022-11-15T05:23:03;9.73;;;1.55;;
73100;SDS011;61288;53.446;-2.266;2022-11-15T05:25:29;6.60;;;1.40;;
73100;SDS011;61288;53.446;-2.266;2022-11-15T05:27:54;6.50;;;1.30;;
73100;SDS011;61288;53.446;-2.266;2022-11-15T05:32:55;4.35;;;1.75;;
73100;SDS011;61288;53.446;-2.266;2022-11-15T05:35:29;4.05;;;1.20;;
73100;SDS011;61288;53.446;-2.266;2022-11-15T05:37:59;3.22;;;1.10;;
73100;SDS011;61288;53.446;-2.266;2022-11-15T05:40:25;2.97;;;1.10;;
73100;SDS011;61288;53.446;-2.266;2022-11-15T05:42:52;5.07;;;1.27;;
73100;SDS011;61288;53.446;-2.266;2022-11-15T05:45:18;5.38;;;1.10;;
73100;SDS011;61288;53.446;-2.266;2022-11-15T05:47:43;4.53;;;1.10;;
73100;SDS011;61288;53.446;-2.266;2022-11-15T05:50:14;4.53;;;1.00;;
73100;SDS011;61288;53.446;-2.266;2022-11-15T05:52:42;2.67;;;1.05;;
73100;SDS011;61288;53.446;-2.266;2022-11-15T05:55:10;1.45;;;0.85;;
73100;SDS011;61288;53.446;-2.266;2022-11-15T05:57:36;1.00;;;0.70;;
73100;SDS011;61288;53.446;-2.266;2022-11-15T06:00:04;2.28;;;0.73;;
73100;SDS011;61288;53.446;-2.266;2022-11-15T06:02:31;3.25;;;1.00;;
73100;SDS011;61288;53.446;-2.266;2022-11-15T06:04:56;2.00;;;0.90;;
73100;SDS011;61288;53.446;-2.266;2022-11-15T06:07:21;1.27;;;0.60;;
73100;SDS011;61288;53.446;-2.266;2022-11-15T06:09:47;2.15;;;0.60;;
73100;SDS011;61288;53.446;-2.266;2022-11-15T06:12:13;2.05;;;0.75;;
73100;SDS011;61288;53.446;-2.266;2022-11-15T06:14:38;1.48;;;0.77;;
73100;SDS011;61288;53.446;-2.266;2022-11-15T06:17:04;0.60;;;0.60;;
73100;SDS011;61288;53.446;-2.266;2022-11-15T06:19:29;0.90;;;0.50;;
73100;SDS011;61288;53.446;-2.266;2022-11-15T06:22:00;0.55;;;0.55;;
73100;SDS011;61288;53.446;-2.266;2022-11-15T06:24:26;1.15;;;0.50;;
73100;SDS011;61288;53.446;-2.266;2022-11-15T06:26:51;1.52;;;0.77;;
73100;SDS011;61288;53.446;-2.266;2022-11-15T06:29:17;1.15;;;0.60;;
73100;SDS011;61288;53.446;-2.266;2022-11-15T06:31:42;1.45;;;0.60;;
73100;SDS011;61288;53.446;-2.266;2022-11-15T06:34:08;1.23;;;0.57;;
73100;SDS011;61288;53.446;-2.266;2022-11-15T06:36:34;0.90;;;0.60;;
73100;SDS011;61288;53.446;-2.266;2022-11-15T06:39:01;3.17;;;0.77;;
73100;SDS011;61288;53.446;-2.266;2022-11-15T06:41:28;1.80;;;0.73;;
73100;SDS011;61288;53.446;-2.266;2022-11-15T06:46:44;2.05;;;0.68;;
73100;SDS011;61288;53.446;-2.266;2022-11-15T06:49:09;2.47;;;0.80;;
73100;SDS011;61288;53.446;-2.266;2022-11-15T06:51:35;2.53;;;0.88;;
73100;SDS011;61288;53.446;-2.266;2022-11-15T06:54:00;3.67;;;0.80;;
73100;SDS011;61288;53.446;-2.266;2022-11-15T06:56:26;2.03;;;0.90;;
73100;SDS011;61288;53.446;-2.266;2022-11-15T06:58:51;1.25;;;0.90;;
73100;SDS011;61288;53.446;-2.266;2022-11-15T07:01:18;1.38;;;0.90;;
73100;SDS011;61288;53.446;-2.266;2022-11-15T07:03:43;4.07;;;1.70;;
73100;SDS011;61288;53.446;-2.266;2022-11-15T07:06:10;2.67;;;1.00;;
73100;SDS011;61288;53.446;-2.266;2022-11-15T07:08:36;1.75;;;1.00;;
73100;SDS011;61288;53.446;-2.266;2022-11-15T07:11:02;3.25;;;1.27;;
73100;SDS011;61288;53.446;-2.266;2022-11-15T07:13:30;5.38;;;1.10;;
73100;SDS011;61288;53.446;-2.266;2022-11-15T07:16:04;1.85;;;1.00;;
73100;SDS011;61288;53.446;-2.266;2022-11-15T07:18:33;1.67;;;1.00;;
73100;SDS011;61288;53.446;-2.266;2022-11-15T07:21:01;3.60;;;1.00;;
73100;SDS011;61288;53.446;-2.266;2022-11-15T07:23:28;2.00;;;1.25;;
73100;SDS011;61288;53.446;-2.266;2022-11-15T07:25:55;3.40;;;1.17;;
73100;SDS011;61288;53.446;-2.266;2022-11-15T07:28:23;2.55;;;0.90;;
73100;SDS011;61288;53.446;-2.266;2022-11-15T07:30:49;4.00;;;0.93;;
73100;SDS011;61288;53.446;-2.266;2022-11-15T07:33:14;3.25;;;1.20;;
73100;SDS011;61288;53.446;-2.266;2022-11-15T07:35:40;2.33;;;0.90;;
73100;SDS011;61288;53.446;-2.266;2022-11-15T07:38:05;3.88;;;1.00;;
73100;SDS011;61288;53.446;-2.266;2022-11-15T07:40:31;3.55;;;1.05;;
73100;SDS011;61288;53.446;-2.266;2022-11-15T07:43:01;4.70;;;1.10;;
73100;SDS011;61288;53.446;-2.266;2022-11-15T07:45:28;0.75;;;0.60;;
73100;SDS011;61288;53.446;-2.266;2022-11-15T07:47:54;5.53;;;1.10;;
73100;SDS011;61288;53.446;-2.266;2022-11-15T07:50:21;2.35;;;0.70;;
73100;SDS011;61288;53.446;-2.266;2022-11-15T07:52:52;3.40;;;0.88;;
73100;SDS011;61288;53.446;-2.266;2022-11-15T07:55:19;1.45;;;0.88;;
73100;SDS011;61288;53.446;-2.266;2022-11-15T07:57:44;3.35;;;1.05;;
73100;SDS011;61288;53.446;-2.266;2022-11-15T08:00:10;3.25;;;0.70;;
73100;SDS011;61288;53.446;-2.266;2022-11-15T08:02:36;4.78;;;0.90;;
73100;SDS011;61288;53.446;-2.266;2022-11-15T08:05:01;7.10;;;0.98;;
73100;SDS011;61288;53.446;-2.266;2022-11-15T08:07:30;4.25;;;0.90;;
73100;SDS011;61288;53.446;-2.266;2022-11-15T08:09:57;1.90;;;0.95;;
73100;SDS011;61288;53.446;-2.266;2022-11-15T08:12:23;1.63;;;0.80;;
73100;SDS011;61288;53.446;-2.266;2022-11-15T08:14:49;2.25;;;0.80;;
73100;SDS011;61288;53.446;-2.266;2022-11-15T08:17:15;3.05;;;1.00;;
73100;SDS011;61288;53.446;-2.266;2022-11-15T08:19:40;2.28;;;0.80;;
73100;SDS011;61288;53.446;-2.266;2022-11-15T08:22:06;2.55;;;0.75;;
73100;SDS011;61288;53.446;-2.266;2022-11-15T08:24:32;3.13;;;0.80;;
73100;SDS011;61288;53.446;-2.266;2022-11-15T08:27:01;7.18;;;2.40;;
73100;SDS011;61288;53.446;-2.266;2022-11-15T08:29:26;1.35;;;0.63;;
73100;SDS011;61288;53.446;-2.266;2022-11-15T08:31:54;2.65;;;0.60;;
73100;SDS011;61288;53.446;-2.266;2022-11-15T08:34:21;2.22;;;0.80;;
73100;SDS011;61288;53.446;-2.266;2022-11-15T08:36:47;4.38;;;0.88;;
73100;SDS011;61288;53.446;-2.266;2022-11-15T08:39:13;2.58;;;0.63;;
73100;SDS011;61288;53.446;-2.266;2022-11-15T08:41:39;2.28;;;0.70;;
73100;SDS011;61288;53.446;-2.266;2022-11-15T08:44:04;1.20;;;0.60;;
73100;SDS011;61288;53.446;-2.266;2022-11-15T08:46:30;1.80;;;0.47;;
73100;SDS011;61288;53.446;-2.266;2022-11-15T08:48:59;0.98;;;0.65;;
73100;SDS011;61288;53.446;-2.266;2022-11-15T08:51:24;2.38;;;0.60;;
73100;SDS011;61288;53.446;-2.266;2022-11-15T08:53:50;0.60;;;0.60;;
73100;SDS011;61288;53.446;-2.266;2022-11-15T08:56:15;1.85;;;0.93;;
73100;SDS011;61288;53.446;-2.266;2022-11-15T08:58:41;1.27;;;0.60;;
73100;SDS011;61288;53.446;-2.266;2022-11-15T09:01:13;1.85;;;0.60;;
73100;SDS011;61288;53.446;-2.266;2022-11-15T09:03:41;2.70;;;0.70;;
73100;SDS011;61288;53.446;-2.266;2022-11-15T09:06:07;2.03;;;0.57;;
73100;SDS011;61288;53.446;-2.266;2022-11-15T09:08:34;1.60;;;0.57;;
73100;SDS011;61288;53.446;-2.266;2022-11-15T09:11:02;2.38;;;0.80;;
73100;SDS011;61288;53.446;-2.266;2022-11-15T09:13:28;2.47;;;1.13;;
73100;SDS011;61288;53.446;-2.266;2022-11-15T09:15:57;2.25;;;0.50;;
73100;SDS011;61288;53.446;-2.266;2022-11-15T09:18:24;1.13;;;0.80;;
73100;SDS011;61288;53.446;-2.266;2022-11-15T09:20:49;2.00;;;0.68;;
73100;SDS011;61288;53.446;-2.266;2022-11-15T09:23:14;2.05;;;0.60;;
73100;SDS011;61288;53.446;-2.266;2022-11-15T09:25:40;2.38;;;0.60;;
73100;SDS011;61288;53.446;-2.266;2022-11-15T09:28:06;3.97;;;0.60;;
73100;SDS011;61288;53.446;-2.266;2022-11-15T09:30:32;1.55;;;0.60;;
73100;SDS011;61288;53.446;-2.266;2022-11-15T09:32:58;1.40;;;0.57;;
73100;SDS011;61288;53.446;-2.266;2022-11-15T09:35:24;5.13;;;0.80;;
73100;SDS011;61288;53.446;-2.266;2022-11-15T09:37:49;0.75;;;0.65;;
73100;SDS011;61288;53.446;-2.266;2022-11-15T09:40:15;2.72;;;0.65;;
73100;SDS011;61288;53.446;-2.266;2022-11-15T09:45:28;0.73;;;0.50;;
73100;SDS011;61288;53.446;-2.266;2022-11-15T09:50:54;1.25;;;0.80;;
73100;SDS011;61288;53.446;-2.266;2022-11-15T09:56:22;0.65;;;0.40;;
73100;SDS011;61288;53.446;-2.266;2022-11-15T10:04:23;1.02;;;0.60;;
73100;SDS011;61288;53.446;-2.266;2022-11-15T10:07:05;0.15;;;0.13;;
73100;SDS011;61288;53.446;-2.266;2022-11-15T10:09:39;1.88;;;0.60;;
73100;SDS011;61288;53.446;-2.266;2022-11-15T10:12:10;1.67;;;0.68;;
73100;SDS011;61288;53.446;-2.266;2022-11-15T10:14:39;0.20;;;0.20;;
73100;SDS011;61288;53.446;-2.266;2022-11-15T10:20:18;0.50;;;0.50;;
73100;SDS011;61288;53.446;-2.266;2022-11-15T10:23:02;1.60;;;0.50;;
73100;SDS011;61288;53.446;-2.266;2022-11-15T10:27:59;1.45;;;0.73;;
73100;SDS011;61288;53.446;-2.266;2022-11-15T10:30:36;2.58;;;0.43;;
73100;SDS011;61288;53.446;-2.266;2022-11-15T10:33:38;1.00;;;0.40;;
73100;SDS011;61288;53.446;-2.266;2022-11-15T10:43:46;0.43;;;0.30;;
73100;SDS011;61288;53.446;-2.266;2022-11-15T10:46:32;0.40;;;0.40;;
73100;SDS011;61288;53.446;-2.266;2022-11-15T10:49:19;1.20;;;0.70;;
73100;SDS011;61288;53.446;-2.266;2022-11-15T10:55:27;0.80;;;0.40;;
73100;SDS011;61288;53.446;-2.266;2022-11-15T10:57:36;2.30;;;0.70;;
73100;SDS011;61288;53.446;-2.266;2022-11-15T11:00:05;1.40;;;0.65;;
73100;SDS011;61288;53.446;-2.266;2022-11-15T11:08:20;2.47;;;0.60;;
73100;SDS011;61288;53.446;-2.266;2022-11-15T11:10:51;3.50;;;0.50;;
73100;SDS011;61288;53.446;-2.266;2022-11-15T11:13:29;1.65;;;0.63;;
73100;SDS011;61288;53.446;-2.266;2022-11-15T11:21:34;1.60;;;0.70;;
73100;SDS011;61288;53.446;-2.266;2022-11-15T11:32:16;1.65;;;0.55;;
73100;SDS011;61288;53.446;-2.266;2022-11-15T11:51:21;2.15;;;0.70;;
73100;SDS011;61288;53.446;-2.266;2022-11-15T11:54:11;1.60;;;0.73;;
73100;SDS011;61288;53.446;-2.266;2022-11-15T11:56:43;2.33;;;0.82;;
73100;SDS011;61288;53.446;-2.266;2022-11-15T11:59:22;1.70;;;0.90;;
73100;SDS011;61288;53.446;-2.266;2022-11-15T12:01:57;0.88;;;0.80;;
73100;SDS011;61288;53.446;-2.266;2022-11-15T12:04:33;3.72;;;0.90;;
73100;SDS011;61288;53.446;-2.266;2022-11-15T12:09:38;2.10;;;1.38;;
73100;SDS011;61288;53.446;-2.266;2022-11-15T12:17:16;2.95;;;1.02;;
73100;SDS011;61288;53.446;-2.266;2022-11-15T12:19:45;2.08;;;0.98;;
73100;SDS011;61288;53.446;-2.266;2022-11-15T12:22:25;1.85;;;1.08;;
73100;SDS011;61288;53.446;-2.266;2022-11-15T12:25:00;1.67;;;0.95;;
73100;SDS011;61288;53.446;-2.266;2022-11-15T12:30:00;3.80;;;1.25;;
73100;SDS011;61288;53.446;-2.266;2022-11-15T12:32:35;2.47;;;1.27;;
73100;SDS011;61288;53.446;-2.266;2022-11-15T12:35:20;3.83;;;1.30;;
73100;SDS011;61288;53.446;-2.266;2022-11-15T12:37:50;3.22;;;1.40;;
73100;SDS011;61288;53.446;-2.266;2022-11-15T12:45:26;3.95;;;1.73;;
73100;SDS011;61288;53.446;-2.266;2022-11-15T12:58:27;6.35;;;2.10;;
73100;SDS011;61288;53.446;-2.266;2022-11-15T13:01:08;4.80;;;1.80;;
73100;SDS011;61288;53.446;-2.266;2022-11-15T13:03:35;6.78;;;1.90;;
73100;SDS011;61288;53.446;-2.266;2022-11-15T13:06:38;5.25;;;1.75;;
73100;SDS011;61288;53.446;-2.266;2022-11-15T13:09:49;6.00;;;1.77;;
73100;SDS011;61288;53.446;-2.266;2022-11-15T13:11:54;4.50;;;1.67;;
73100;SDS011;61288;53.446;-2.266;2022-11-15T13:17:24;8.82;;;2.40;;
73100;SDS011;61288;53.446;-2.266;2022-11-15T13:20:00;7.60;;;2.10;;
73100;SDS011;61288;53.446;-2.266;2022-11-15T13:22:46;4.78;;;1.63;;
73100;SDS011;61288;53.446;-2.266;2022-11-15T13:25:26;6.25;;;1.50;;
73100;SDS011;61288;53.446;-2.266;2022-11-15T13:33:15;10.40;;;1.90;;
73100;SDS011;61288;53.446;-2.266;2022-11-15T13:35:45;7.22;;;1.50;;
73100;SDS011;61288;53.446;-2.266;2022-11-15T13:38:25;10.00;;;1.92;;
73100;SDS011;61288;53.446;-2.266;2022-11-15T13:41:10;6.18;;;1.73;;
73100;SDS011;61288;53.446;-2.266;2022-11-15T13:43:47;10.60;;;2.00;;
73100;SDS011;61288;53.446;-2.266;2022-11-15T13:46:30;9.00;;;1.80;;
73100;SDS011;61288;53.446;-2.266;2022-11-15T13:48:59;9.85;;;1.70;;
73100;SDS011;61288;53.446;-2.266;2022-11-15T13:56:39;8.02;;;1.50;;
73100;SDS011;61288;53.446;-2.266;2022-11-15T13:59:28;10.85;;;1.63;;
73100;SDS011;61288;53.446;-2.266;2022-11-15T14:01:57;7.75;;;1.60;;
73100;SDS011;61288;53.446;-2.266;2022-11-15T14:04:26;13.63;;;1.90;;
73100;SDS011;61288;53.446;-2.266;2022-11-15T14:07:00;13.35;;;2.28;;
73100;SDS011;61288;53.446;-2.266;2022-11-15T14:11:59;11.20;;;2.22;;
73100;SDS011;61288;53.446;-2.266;2022-11-15T14:14:28;11.07;;;2.10;;
73100;SDS011;61288;53.446;-2.266;2022-11-15T14:16:56;10.48;;;1.77;;
73100;SDS011;61288;53.446;-2.266;2022-11-15T14:22:24;10.85;;;1.80;;
73100;SDS011;61288;53.446;-2.266;2022-11-15T14:25:04;12.23;;;2.35;;
73100;SDS011;61288;53.446;-2.266;2022-11-15T14:27:45;12.77;;;2.22;;
73100;SDS011;61288;53.446;-2.266;2022-11-15T14:30:41;16.52;;;2.33;;
73100;SDS011;61288;53.446;-2.266;2022-11-15T14:33:17;14.77;;;2.10;;
73100;SDS011;61288;53.446;-2.266;2022-11-15T14:35:53;17.65;;;3.05;;
73100;SDS011;61288;53.446;-2.266;2022-11-15T14:38:21;12.35;;;2.20;;
73100;SDS011;61288;53.446;-2.266;2022-11-15T14:40:47;18.00;;;2.75;;
73100;SDS011;61288;53.446;-2.266;2022-11-15T14:43:13;12.18;;;2.20;;
73100;SDS011;61288;53.446;-2.266;2022-11-15T14:45:39;13.48;;;2.15;;
73100;SDS011;61288;53.446;-2.266;2022-11-15T14:48:05;10.80;;;2.20;;
73100;SDS011;61288;53.446;-2.266;2022-11-15T14:50:31;12.02;;;1.80;;
73100;SDS011;61288;53.446;-2.266;2022-11-15T14:52:58;13.32;;;2.50;;
73100;SDS011;61288;53.446;-2.266;2022-11-15T14:55:28;15.82;;;2.20;;
73100;SDS011;61288;53.446;-2.266;2022-11-15T14:57:57;15.55;;;1.80;;
73100;SDS011;61288;53.446;-2.266;2022-11-15T15:00:23;8.57;;;1.70;;
73100;SDS011;61288;53.446;-2.266;2022-11-15T15:02:50;10.27;;;1.70;;
73100;SDS011;61288;53.446;-2.266;2022-11-15T15:07:48;14.10;;;2.35;;
73100;SDS011;61288;53.446;-2.266;2022-11-15T15:10:16;7.85;;;1.95;;
73100;SDS011;61288;53.446;-2.266;2022-11-15T15:12:42;14.00;;;2.03;;
73100;SDS011;61288;53.446;-2.266;2022-11-15T15:15:17;8.10;;;2.08;;
73100;SDS011;61288;53.446;-2.266;2022-11-15T15:17:48;12.05;;;2.60;;
73100;SDS011;61288;53.446;-2.266;2022-11-15T15:20:14;13.73;;;2.20;;
73100;SDS011;61288;53.446;-2.266;2022-11-15T15:22:43;10.85;;;2.70;;
73100;SDS011;61288;53.446;-2.266;2022-11-15T15:25:29;10.75;;;2.15;;
73100;SDS011;61288;53.446;-2.266;2022-11-15T15:27:57;12.40;;;2.15;;
73100;SDS011;61288;53.446;-2.266;2022-11-15T15:30:23;11.73;;;2.13;;
73100;SDS011;61288;53.446;-2.266;2022-11-15T15:32:49;18.55;;;2.25;;
73100;SDS011;61288;53.446;-2.266;2022-11-15T15:35:18;13.38;;;2.13;;
73100;SDS011;61288;53.446;-2.266;2022-11-15T15:37:44;14.30;;;2.28;;
73100;SDS011;61288;53.446;-2.266;2022-11-15T15:40:13;17.30;;;2.17;;
73100;SDS011;61288;53.446;-2.266;2022-11-15T15:42:42;11.52;;;2.00;;
73100;SDS011;61288;53.446;-2.266;2022-11-15T15:45:08;12.88;;;2.17;;
73100;SDS011;61288;53.446;-2.266;2022-11-15T15:47:34;11.40;;;1.85;;
73100;SDS011;61288;53.446;-2.266;2022-11-15T15:50:00;12.27;;;1.83;;
73100;SDS011;61288;53.446;-2.266;2022-11-15T15:52:26;17.75;;;2.03;;
73100;SDS011;61288;53.446;-2.266;2022-11-15T15:54:51;7.05;;;1.75;;
73100;SDS011;61288;53.446;-2.266;2022-11-15T15:57:17;7.32;;;1.42;;
73100;SDS011;61288;53.446;-2.266;2022-11-15T15:59:43;13.68;;;2.38;;
73100;SDS011;61288;53.446;-2.266;2022-11-15T16:02:12;9.85;;;1.98;;
73100;SDS011;61288;53.446;-2.266;2022-11-15T16:04:38;6.43;;;1.75;;
73100;SDS011;61288;53.446;-2.266;2022-11-15T16:07:04;10.95;;;2.25;;
73100;SDS011;61288;53.446;-2.266;2022-11-15T16:09:30;8.77;;;1.90;;
73100;SDS011;61288;53.446;-2.266;2022-11-15T16:12:22;8.68;;;1.98;;
73100;SDS011;61288;53.446;-2.266;2022-11-15T16:14:48;11.50;;;2.00;;
73100;SDS011;61288;53.446;-2.266;2022-11-15T16:17:24;10.55;;;2.03;;
73100;SDS011;61288;53.446;-2.266;2022-11-15T16:19:51;10.00;;;1.65;;
73100;SDS011;61288;53.446;-2.266;2022-11-15T16:22:17;8.85;;;1.83;;
73100;SDS011;61288;53.446;-2.266;2022-11-15T16:24:43;16.08;;;2.40;;
73100;SDS011;61288;53.446;-2.266;2022-11-15T16:27:15;11.18;;;2.28;;
73100;SDS011;61288;53.446;-2.266;2022-11-15T16:29:43;8.88;;;1.90;;
73100;SDS011;61288;53.446;-2.266;2022-11-15T16:32:09;8.50;;;1.80;;
73100;SDS011;61288;53.446;-2.266;2022-11-15T16:34:35;10.00;;;2.10;;
73100;SDS011;61288;53.446;-2.266;2022-11-15T16:37:02;11.55;;;1.90;;
73100;SDS011;61288;53.446;-2.266;2022-11-15T16:39:27;6.85;;;1.90;;
73100;SDS011;61288;53.446;-2.266;2022-11-15T16:41:55;10.52;;;1.90;;
73100;SDS011;61288;53.446;-2.266;2022-11-15T16:44:22;9.98;;;2.53;;
73100;SDS011;61288;53.446;-2.266;2022-11-15T16:46:48;15.93;;;2.50;;
73100;SDS011;61288;53.446;-2.266;2022-11-15T16:49:16;10.93;;;2.45;;
73100;SDS011;61288;53.446;-2.266;2022-11-15T16:51:49;11.82;;;2.80;;
73100;SDS011;61288;53.446;-2.266;2022-11-15T16:54:15;11.50;;;2.38;;
73100;SDS011;61288;53.446;-2.266;2022-11-15T16:56:41;12.90;;;2.63;;
73100;SDS011;61288;53.446;-2.266;2022-11-15T16:59:08;13.48;;;2.33;;
73100;SDS011;61288;53.446;-2.266;2022-11-15T17:01:39;11.23;;;2.33;;
73100;SDS011;61288;53.446;-2.266;2022-11-15T17:04:11;13.15;;;2.78;;
73100;SDS011;61288;53.446;-2.266;2022-11-15T17:06:41;12.88;;;2.65;;
73100;SDS011;61288;53.446;-2.266;2022-11-15T17:09:17;10.35;;;2.40;;
73100;SDS011;61288;53.446;-2.266;2022-11-15T17:11:45;10.38;;;2.50;;
73100;SDS011;61288;53.446;-2.266;2022-11-15T17:14:11;12.40;;;2.80;;
73100;SDS011;61288;53.446;-2.266;2022-11-15T17:16:37;13.02;;;2.90;;
73100;SDS011;61288;53.446;-2.266;2022-11-15T17:19:17;9.82;;;2.30;;
73100;SDS011;61288;53.446;-2.266;2022-11-15T17:21:44;9.57;;;2.30;;